createdAt,value
2022-07-27T00:01:28.511Z,17.99
2022-07-27T00:03:57.882Z,17.96
2022-07-27T00:06:27.756Z,17.86
2022-07-27T00:08:56.998Z,17.91
2022-07-27T00:11:26.280Z,17.97
2022-07-27T00:13:55.507Z,17.88
2022-07-27T00:16:26.107Z,17.91
2022-07-27T00:18:55.398Z,17.94
2022-07-27T00:21:26.776Z,17.85
2022-07-27T00:23:56.590Z,17.76
2022-07-27T00:26:25.800Z,17.76
2022-07-27T00:28:55.088Z,17.75
2022-07-27T00:31:25.823Z,17.73
2022-07-27T00:33:55.025Z,17.78
2022-07-27T00:36:24.251Z,17.79
2022-07-27T00:38:53.439Z,17.72
2022-07-27T00:41:22.743Z,17.70
2022-07-27T00:43:54.954Z,17.57
2022-07-27T00:46:27.560Z,17.64
2022-07-27T00:48:56.668Z,17.65
2022-07-27T00:51:27.142Z,17.62
2022-07-27T00:53:58.151Z,17.53
2022-07-27T00:56:27.742Z,17.45
2022-07-27T00:58:58.380Z,17.27
2022-07-27T01:01:29.154Z,17.45
2022-07-27T01:03:58.412Z,17.32
2022-07-27T01:06:28.323Z,17.30
2022-07-27T01:09:13.734Z,17.29
2022-07-27T01:11:43.528Z,17.31
2022-07-27T01:14:15.282Z,17.29
2022-07-27T01:16:46.077Z,17.25
2022-07-27T01:19:16.641Z,17.29
2022-07-27T01:21:47.482Z,17.27
2022-07-27T01:24:16.927Z,17.26
2022-07-27T01:26:46.483Z,17.23
2022-07-27T01:29:15.883Z,17.21
2022-07-27T01:31:45.227Z,17.18
2022-07-27T01:34:14.595Z,17.16
2022-07-27T01:36:43.990Z,17.08
2022-07-27T01:39:15.524Z,17.01
2022-07-27T01:41:44.969Z,17.04
2022-07-27T01:44:14.595Z,16.98
2022-07-27T01:46:49.148Z,16.91
2022-07-27T01:49:18.705Z,16.92
2022-07-27T01:51:48.062Z,16.95
2022-07-27T01:54:19.253Z,16.93
2022-07-27T01:56:48.707Z,16.77
2022-07-27T01:59:17.946Z,16.86
2022-07-27T02:01:47.628Z,16.85
2022-07-27T02:04:18.373Z,16.84
2022-07-27T02:06:47.955Z,16.80
2022-07-27T02:09:18.580Z,16.73
2022-07-27T02:12:05.452Z,16.72
2022-07-27T02:14:34.727Z,16.69
2022-07-27T02:17:04.313Z,16.65
2022-07-27T02:19:34.554Z,16.64
2022-07-27T02:22:03.757Z,16.61
2022-07-27T02:24:35.538Z,16.56
2022-07-27T02:27:05.249Z,16.58
2022-07-27T02:29:34.419Z,16.53
2022-07-27T02:32:03.645Z,16.56
2022-07-27T02:34:32.888Z,16.54
2022-07-27T02:37:02.324Z,16.48
2022-07-27T02:39:31.672Z,16.48
2022-07-27T02:42:03.248Z,16.46
2022-07-27T02:44:32.501Z,16.37
2022-07-27T02:47:04.460Z,16.37
2022-07-27T02:49:33.829Z,16.35
2022-07-27T02:52:03.206Z,16.33
2022-07-27T02:54:32.681Z,16.32
2022-07-27T02:57:04.921Z,16.30
2022-07-27T02:59:34.253Z,16.27
2022-07-27T03:02:03.756Z,16.14
2022-07-27T03:04:33.271Z,16.21
2022-07-27T03:07:02.796Z,16.11
2022-07-27T03:09:33.227Z,16.13
2022-07-27T03:12:05.050Z,16.09
2022-07-27T03:14:34.291Z,15.91
2022-07-27T03:17:03.557Z,15.88
2022-07-27T03:19:32.956Z,15.87
2022-07-27T03:22:02.166Z,15.88
2022-07-27T03:24:31.538Z,15.82
2022-07-27T03:27:00.699Z,15.77
2022-07-27T03:29:31.374Z,15.77
2022-07-27T03:32:00.596Z,15.74
2022-07-27T03:34:29.703Z,15.70
2022-07-27T03:36:58.956Z,15.61
2022-07-27T03:39:28.116Z,15.54
2022-07-27T03:41:57.379Z,15.44
2022-07-27T03:44:26.606Z,15.48
2022-07-27T03:46:57.196Z,15.45
2022-07-27T03:49:26.544Z,15.45
2022-07-27T03:51:55.802Z,15.46
2022-07-27T03:54:25.214Z,15.46
2022-07-27T03:56:54.455Z,15.50
2022-07-27T03:59:23.607Z,15.46
2022-07-27T04:01:52.762Z,15.54
2022-07-27T04:04:23.399Z,15.41
2022-07-27T04:06:52.684Z,15.57
2022-07-27T04:09:22.110Z,15.54
2022-07-27T04:11:51.749Z,15.57
2022-07-27T04:14:24.888Z,15.55
2022-07-27T04:16:54.039Z,15.60
2022-07-27T04:19:24.664Z,15.57
2022-07-27T04:21:53.925Z,15.62
2022-07-27T04:24:23.334Z,15.64
2022-07-27T04:26:52.599Z,15.65
2022-07-27T04:29:22.303Z,15.64
2022-07-27T04:31:52.299Z,15.67
2022-07-27T04:34:23.885Z,15.69
2022-07-27T04:36:53.126Z,15.69
2022-07-27T04:39:22.361Z,15.75
2022-07-27T04:41:51.844Z,15.77
2022-07-27T04:44:21.132Z,15.80
2022-07-27T04:46:50.286Z,15.74
2022-07-27T04:49:19.622Z,15.87
2022-07-27T04:51:50.343Z,15.89
2022-07-27T04:54:19.553Z,15.92
2022-07-27T04:56:48.786Z,15.98
2022-07-27T04:59:17.994Z,15.99
2022-07-27T05:01:47.359Z,15.98
2022-07-27T05:04:16.572Z,15.87
2022-07-27T05:06:46.871Z,16.01
2022-07-27T05:09:22.549Z,16.02
2022-07-27T05:11:52.475Z,16.04
2022-07-27T05:14:22.069Z,16.10
2022-07-27T05:16:51.683Z,16.09
2022-07-27T05:19:20.982Z,16.09
2022-07-27T05:21:50.628Z,16.10
2022-07-27T05:24:21.190Z,16.22
2022-07-27T05:26:50.631Z,16.23
2022-07-27T05:29:19.950Z,16.32
2022-07-27T05:31:49.336Z,16.34
2022-07-27T05:34:19.071Z,16.37
2022-07-27T05:36:48.438Z,16.40
2022-07-27T05:39:17.918Z,16.27
2022-07-27T05:41:49.008Z,16.46
2022-07-27T05:44:19.170Z,16.44
2022-07-27T05:46:48.413Z,16.50
2022-07-27T05:49:17.855Z,16.58
2022-07-27T05:51:47.254Z,16.65
2022-07-27T05:54:16.536Z,16.68
2022-07-27T05:56:47.255Z,16.71
2022-07-27T05:59:16.632Z,16.67
2022-07-27T06:01:45.975Z,16.81
2022-07-27T06:04:15.279Z,16.53
2022-07-27T06:07:01.685Z,16.92
2022-07-27T06:09:31.041Z,16.97
2022-07-27T06:12:01.912Z,17.08
2022-07-27T06:14:32.726Z,17.04
2022-07-27T06:17:01.912Z,17.13
2022-07-27T06:19:36.432Z,17.19
2022-07-27T06:22:06.196Z,17.23
2022-07-27T06:24:35.736Z,17.31
2022-07-27T06:27:06.540Z,17.45
2022-07-27T06:29:35.766Z,17.54
2022-07-27T06:32:05.131Z,17.57
2022-07-27T06:34:38.246Z,17.65
2022-07-27T06:37:11.605Z,17.74
2022-07-27T06:39:40.789Z,17.70
2022-07-27T06:42:14.081Z,17.78
2022-07-27T06:44:43.438Z,17.72
2022-07-27T06:47:12.981Z,17.94
2022-07-27T06:49:42.273Z,18.02
2022-07-27T06:52:11.640Z,18.10
2022-07-27T06:54:41.029Z,18.16
2022-07-27T06:57:14.052Z,18.25
2022-07-27T06:59:43.973Z,18.24
2022-07-27T07:02:15.814Z,18.30
2022-07-27T07:04:45.310Z,18.40
2022-07-27T07:07:14.711Z,18.48
2022-07-27T07:09:43.869Z,18.51
2022-07-27T07:12:14.825Z,18.56
2022-07-27T07:14:44.133Z,18.66
2022-07-27T07:17:13.605Z,18.75
2022-07-27T07:19:42.838Z,18.81
2022-07-27T07:22:12.133Z,18.88
2022-07-27T07:24:41.366Z,18.72
2022-07-27T07:27:10.509Z,18.78
2022-07-27T07:29:41.659Z,18.77
2022-07-27T07:32:10.959Z,18.73
2022-07-27T07:34:44.159Z,18.57
2022-07-27T07:37:13.351Z,18.78
2022-07-27T07:39:42.547Z,18.81
2022-07-27T07:42:11.903Z,18.86
2022-07-27T07:44:43.055Z,18.91
2022-07-27T07:47:12.633Z,18.99
2022-07-27T07:49:41.917Z,19.07
2022-07-27T07:52:11.362Z,19.06
2022-07-27T07:54:40.567Z,19.02
2022-07-27T07:57:09.814Z,19.24
2022-07-27T07:59:39.048Z,19.40
2022-07-27T08:02:09.680Z,19.63
2022-07-27T08:04:39.074Z,19.92
2022-07-27T08:07:08.335Z,20.23
2022-07-27T08:09:37.688Z,20.32
2022-07-27T08:12:08.077Z,20.67
2022-07-27T08:14:37.792Z,20.81
2022-07-27T08:17:08.373Z,21.00
2022-07-27T08:19:40.300Z,21.23
2022-07-27T08:22:09.836Z,21.41
2022-07-27T08:24:39.058Z,21.77
2022-07-27T08:27:08.313Z,22.02
2022-07-27T08:29:37.634Z,22.02
2022-07-27T08:32:10.130Z,22.19
2022-07-27T08:34:39.454Z,22.50
2022-07-27T08:37:12.044Z,22.58
2022-07-27T08:42:34.892Z,22.44
2022-07-27T08:45:06.582Z,22.33
2022-07-27T08:47:39.834Z,22.18
2022-07-27T08:50:24.520Z,22.14
2022-07-27T08:53:03.365Z,21.98
2022-07-27T08:55:34.223Z,21.58
2022-07-27T08:58:04.670Z,21.53
2022-07-27T09:00:35.379Z,21.29
2022-07-27T09:03:06.367Z,21.05
2022-07-27T09:05:42.464Z,21.05
2022-07-27T09:08:13.928Z,21.01
2022-07-27T09:10:43.850Z,20.98
2022-07-27T09:13:26.145Z,20.73
2022-07-27T09:18:50.203Z,20.43
2022-07-27T09:21:22.383Z,20.47
2022-07-27T09:23:54.401Z,20.49
2022-07-27T09:26:33.380Z,20.43
2022-07-27T09:29:06.651Z,20.52
2022-07-27T09:31:43.916Z,20.61
2022-07-27T09:34:27.846Z,20.50
2022-07-27T09:36:59.722Z,20.60
2022-07-27T09:39:30.408Z,20.73
2022-07-27T09:42:02.907Z,20.82
2022-07-27T09:44:43.201Z,20.78
2022-07-27T09:47:27.099Z,20.68
2022-07-27T09:50:17.503Z,20.98
2022-07-27T09:52:48.242Z,20.81
2022-07-27T09:55:22.263Z,20.90
2022-07-27T09:57:56.947Z,21.01
2022-07-27T10:00:27.617Z,21.06
2022-07-27T10:02:57.347Z,21.17
2022-07-27T10:05:28.126Z,21.20
2022-07-27T10:07:57.789Z,21.35
2022-07-27T10:10:28.732Z,21.65
2022-07-27T10:12:58.098Z,21.72
2022-07-27T10:15:27.931Z,21.78
2022-07-27T10:18:07.442Z,21.82
2022-07-27T10:20:47.254Z,21.82
2022-07-27T10:23:28.610Z,21.80
2022-07-27T10:26:18.739Z,21.72
2022-07-27T10:28:57.417Z,21.70
2022-07-27T10:31:30.247Z,21.73
2022-07-27T10:34:01.986Z,21.74
2022-07-27T10:36:56.882Z,21.68
2022-07-27T10:39:45.449Z,21.68
2022-07-27T10:42:32.113Z,21.37
2022-07-27T10:45:09.542Z,21.24
2022-07-27T10:47:43.092Z,21.30
2022-07-27T10:50:26.103Z,21.14
2022-07-27T10:53:00.239Z,20.93
2022-07-27T10:55:47.659Z,21.21
2022-07-27T10:58:58.714Z,21.31
2022-07-27T11:01:28.083Z,21.29
2022-07-27T11:03:57.537Z,21.32
2022-07-27T11:06:39.811Z,21.41
2022-07-27T11:12:15.012Z,21.40
2022-07-27T11:14:49.701Z,21.77
2022-07-27T11:17:52.066Z,21.95
2022-07-27T11:20:13.302Z,22.07
2022-07-27T11:23:26.500Z,22.05
2022-07-27T11:25:34.441Z,22.03
2022-07-27T11:28:08.879Z,22.10
2022-07-27T11:30:38.285Z,22.20
2022-07-27T11:33:08.167Z,22.42
2022-07-27T11:35:37.540Z,22.54
2022-07-27T11:38:08.014Z,22.57
2022-07-27T11:40:59.829Z,22.63
2022-07-27T11:43:40.373Z,22.77
2022-07-27T11:46:19.927Z,22.87
2022-07-27T11:49:18.016Z,22.85
2022-07-27T11:51:44.519Z,23.09
2022-07-27T11:54:20.370Z,23.09
2022-07-27T11:56:54.047Z,23.30
2022-07-27T11:59:25.393Z,23.38
2022-07-27T12:01:59.131Z,23.59
2022-07-27T12:04:30.803Z,23.70
2022-07-27T12:07:07.434Z,24.18
2022-07-27T12:09:40.293Z,24.37
2022-07-27T12:12:16.027Z,24.64
2022-07-27T12:14:48.945Z,24.87
2022-07-27T12:17:29.251Z,25.09
2022-07-27T12:20:02.224Z,25.19
2022-07-27T12:22:36.208Z,24.93
2022-07-27T12:25:16.370Z,24.91
2022-07-27T12:28:00.236Z,24.74
2022-07-27T12:30:35.947Z,24.48
2022-07-27T12:33:07.220Z,24.34
2022-07-27T12:35:46.690Z,24.14
2022-07-27T12:38:16.543Z,23.90
2022-07-27T12:40:49.244Z,23.50
2022-07-27T12:43:23.514Z,23.34
2022-07-27T12:45:55.134Z,23.16
2022-07-27T12:48:27.043Z,22.85
2022-07-27T12:51:02.558Z,22.79
2022-07-27T12:53:34.353Z,22.74
2022-07-27T12:56:07.004Z,22.47
2022-07-27T12:58:37.965Z,22.43
2022-07-27T13:01:08.843Z,22.38
2022-07-27T13:03:38.223Z,22.27
2022-07-27T13:06:12.836Z,22.15
2022-07-27T13:08:42.706Z,22.05
2022-07-27T13:11:11.887Z,22.06
2022-07-27T13:13:44.838Z,21.95
2022-07-27T13:16:14.229Z,22.02
2022-07-27T13:18:43.661Z,21.91
2022-07-27T13:21:12.961Z,21.78
2022-07-27T13:23:42.552Z,21.85
2022-07-27T13:26:11.979Z,21.77
2022-07-27T13:28:41.241Z,21.95
2022-07-27T13:31:11.966Z,21.93
2022-07-27T13:33:41.270Z,22.08
2022-07-27T13:36:10.988Z,22.18
2022-07-27T13:38:40.412Z,22.26
2022-07-27T13:41:10.691Z,22.33
2022-07-27T13:43:40.095Z,22.38
2022-07-27T13:46:10.969Z,22.39
2022-07-27T13:48:40.444Z,22.36
2022-07-27T13:51:09.778Z,22.37
2022-07-27T13:53:38.959Z,22.43
2022-07-27T13:56:08.537Z,22.44
2022-07-27T13:58:41.156Z,22.51
2022-07-27T14:01:12.244Z,22.43
2022-07-27T14:03:41.847Z,22.41
2022-07-27T14:06:13.041Z,22.46
2022-07-27T14:08:42.695Z,22.59
2022-07-27T14:11:11.960Z,22.62
2022-07-27T14:13:41.730Z,22.54
2022-07-27T14:16:12.977Z,22.52
2022-07-27T14:18:42.347Z,22.52
2022-07-27T14:21:11.855Z,22.29
2022-07-27T14:23:41.951Z,22.46
2022-07-27T14:26:12.139Z,22.45
2022-07-27T14:28:42.991Z,22.50
2022-07-27T14:31:14.429Z,22.56
2022-07-27T14:33:43.796Z,22.57
2022-07-27T14:36:13.497Z,22.61
2022-07-27T14:38:44.452Z,22.64
2022-07-27T14:41:14.227Z,22.53
2022-07-27T14:43:43.517Z,22.56
2022-07-27T14:46:14.240Z,22.56
2022-07-27T14:49:05.309Z,22.57
2022-07-27T14:51:32.848Z,22.50
2022-07-27T14:54:02.093Z,22.32
2022-07-27T14:56:31.476Z,22.25
2022-07-27T14:59:00.747Z,21.94
2022-07-27T15:01:31.933Z,22.09
2022-07-27T15:04:01.356Z,21.98
2022-07-27T15:06:35.272Z,22.02
2022-07-27T15:09:07.967Z,21.92
2022-07-27T15:11:37.901Z,21.79
2022-07-27T15:14:07.137Z,21.81
2022-07-27T15:16:37.908Z,21.77
2022-07-27T15:19:08.374Z,21.66
2022-07-27T15:21:37.734Z,21.67
2022-07-27T15:24:08.095Z,21.79
2022-07-27T15:26:37.757Z,21.57
2022-07-27T15:29:07.232Z,21.53
2022-07-27T15:31:37.998Z,21.41
2022-07-27T15:34:07.296Z,21.46
2022-07-27T15:36:43.614Z,21.41
2022-07-27T15:39:15.291Z,21.22
2022-07-27T15:41:44.820Z,21.34
2022-07-27T15:44:14.453Z,21.28
2022-07-27T15:46:45.136Z,21.34
2022-07-27T15:49:14.951Z,21.20
2022-07-27T15:51:44.571Z,21.31
2022-07-27T15:54:14.141Z,21.32
2022-07-27T15:56:43.435Z,21.41
2022-07-27T15:59:12.826Z,21.31
2022-07-27T16:01:42.598Z,21.36
2022-07-27T16:04:14.102Z,21.32
2022-07-27T16:06:43.812Z,21.16
2022-07-27T16:09:14.097Z,21.10
2022-07-27T16:11:43.696Z,20.81
2022-07-27T16:14:12.852Z,21.05
2022-07-27T16:16:42.123Z,21.06
2022-07-27T16:19:14.347Z,20.63
2022-07-27T16:21:55.095Z,20.90
2022-07-27T16:24:26.335Z,20.82
2022-07-27T16:26:56.457Z,20.57
2022-07-27T16:29:27.444Z,20.83
2022-07-27T16:31:59.154Z,20.81
2022-07-27T16:34:32.130Z,20.80
2022-07-27T16:37:02.174Z,20.79
2022-07-27T16:39:33.444Z,20.80
2022-07-27T16:42:02.745Z,20.81
2022-07-27T16:44:31.928Z,20.72
2022-07-27T16:47:01.241Z,20.73
2022-07-27T16:49:33.809Z,20.72
2022-07-27T16:52:07.042Z,20.73
2022-07-27T16:54:39.686Z,20.73
2022-07-27T16:57:10.728Z,20.65
2022-07-27T16:59:41.722Z,20.67
2022-07-27T17:02:11.325Z,20.55
2022-07-27T17:04:41.978Z,20.42
2022-07-27T17:07:12.288Z,20.48
2022-07-27T17:09:41.848Z,20.38
2022-07-27T17:12:11.193Z,20.44
2022-07-27T17:14:47.009Z,20.37
2022-07-27T17:17:16.644Z,20.41
2022-07-27T17:19:47.264Z,20.49
2022-07-27T17:22:16.820Z,20.45
2022-07-27T17:24:46.022Z,20.59
2022-07-27T17:27:15.695Z,20.57
2022-07-27T17:29:44.833Z,20.49
2022-07-27T17:32:14.598Z,20.54
2022-07-27T17:34:45.657Z,20.53
2022-07-27T17:37:16.696Z,20.47
2022-07-27T17:39:45.979Z,20.46
2022-07-27T17:42:16.073Z,20.53
2022-07-27T17:44:45.371Z,20.42
2022-07-27T17:47:14.985Z,20.57
2022-07-27T17:49:45.918Z,20.62
2022-07-27T17:52:16.599Z,20.64
2022-07-27T17:54:47.820Z,20.63
2022-07-27T17:57:17.237Z,20.58
2022-07-27T17:59:47.127Z,20.73
2022-07-27T18:02:18.916Z,20.75
2022-07-27T18:04:48.547Z,20.73
2022-07-27T18:07:19.540Z,20.50
2022-07-27T18:09:49.596Z,20.48
2022-07-27T18:12:21.744Z,20.53
2022-07-27T18:15:09.536Z,20.27
2022-07-27T18:17:39.295Z,20.36
2022-07-27T18:20:12.079Z,20.36
2022-07-27T18:22:43.195Z,20.33
2022-07-27T18:25:13.741Z,20.28
2022-07-27T18:27:45.062Z,20.21
2022-07-27T18:30:14.991Z,20.16
2022-07-27T18:32:45.514Z,20.01
2022-07-27T18:35:15.428Z,19.91
2022-07-27T18:37:46.405Z,19.97
2022-07-27T18:40:16.110Z,19.96
2022-07-27T18:42:46.600Z,19.90
2022-07-27T18:45:16.257Z,19.88
2022-07-27T18:47:49.316Z,19.87
2022-07-27T18:50:19.405Z,19.85
2022-07-27T18:52:50.408Z,19.83
2022-07-27T18:55:22.764Z,19.80
2022-07-27T18:57:55.607Z,19.72
2022-07-27T19:00:25.874Z,19.79
2022-07-27T19:02:58.525Z,19.85
2022-07-27T19:05:40.616Z,19.83
2022-07-27T19:08:14.032Z,19.80
2022-07-27T19:10:44.492Z,19.81
2022-07-27T19:13:14.474Z,19.67
2022-07-27T19:15:45.074Z,19.71
2022-07-27T19:18:14.787Z,19.77
2022-07-27T19:20:44.044Z,19.69
2022-07-27T19:23:15.439Z,19.69
2022-07-27T19:25:46.377Z,19.65
2022-07-27T19:28:19.662Z,19.61
2022-07-27T19:30:50.135Z,19.59
2022-07-27T19:33:21.376Z,19.48
2022-07-27T19:35:52.740Z,19.46
2022-07-27T19:38:23.887Z,19.44
2022-07-27T19:40:54.150Z,19.40
2022-07-27T19:43:24.363Z,19.34
2022-07-27T19:45:54.157Z,19.19
2022-07-27T19:48:24.846Z,19.21
2022-07-27T19:50:54.076Z,19.15
2022-07-27T19:53:25.270Z,19.00
2022-07-27T19:55:56.299Z,19.07
2022-07-27T19:58:26.369Z,19.07
2022-07-27T20:00:56.248Z,19.00
2022-07-27T20:03:26.047Z,19.07
2022-07-27T20:05:56.017Z,19.07
2022-07-27T20:08:27.413Z,18.83
2022-07-27T20:10:57.472Z,18.97
2022-07-27T20:13:27.338Z,19.04
2022-07-27T20:15:57.081Z,18.92
2022-07-27T20:18:26.721Z,18.98
2022-07-27T20:20:56.457Z,18.92
2022-07-27T20:23:27.964Z,18.81
2022-07-27T20:25:57.724Z,18.80
2022-07-27T20:28:28.305Z,18.76
2022-07-27T20:30:59.957Z,18.74
2022-07-27T20:33:32.778Z,18.71
2022-07-27T20:36:02.905Z,18.66
2022-07-27T20:38:33.698Z,18.69
2022-07-27T20:41:03.150Z,18.58
2022-07-27T20:43:32.592Z,18.20
2022-07-27T20:46:02.101Z,18.27
2022-07-27T20:48:33.483Z,18.42
2022-07-27T20:51:03.120Z,18.49
2022-07-27T20:53:34.718Z,18.47
2022-07-27T20:56:04.835Z,18.42
2022-07-27T20:58:34.913Z,18.43
2022-07-27T21:01:05.039Z,18.25
2022-07-27T21:03:34.983Z,18.49
2022-07-27T21:06:05.272Z,18.50
2022-07-27T21:08:36.519Z,18.45
2022-07-27T21:11:06.712Z,18.46
2022-07-27T21:13:36.342Z,18.44
2022-07-27T21:16:06.689Z,18.44
2022-07-27T21:18:36.531Z,18.35
2022-07-27T21:21:06.040Z,18.36
2022-07-27T21:23:54.269Z,18.28
2022-07-27T21:26:23.861Z,18.32
2022-07-27T21:28:54.599Z,18.29
2022-07-27T21:31:24.011Z,18.23
2022-07-27T21:33:53.517Z,18.20
2022-07-27T21:36:23.634Z,18.13
2022-07-27T21:38:54.328Z,18.18
2022-07-27T21:41:23.725Z,18.19
2022-07-27T21:43:53.382Z,18.26
2022-07-27T21:46:22.698Z,18.25
2022-07-27T21:48:52.012Z,18.15
2022-07-27T21:51:21.666Z,18.16
2022-07-27T21:53:53.568Z,18.19
2022-07-27T21:56:22.920Z,18.09
2022-07-27T21:58:52.106Z,18.15
2022-07-27T22:01:21.838Z,18.10
2022-07-27T22:03:51.484Z,17.87
2022-07-27T22:06:21.135Z,18.14
2022-07-27T22:08:50.423Z,18.11
2022-07-27T22:11:21.026Z,18.12
2022-07-27T22:13:50.385Z,18.08
2022-07-27T22:16:19.635Z,17.96
2022-07-27T22:18:49.022Z,18.08
2022-07-27T22:21:18.352Z,18.02
2022-07-27T22:23:50.972Z,17.96
2022-07-27T22:26:22.197Z,18.05
2022-07-27T22:28:51.605Z,18.02
2022-07-27T22:31:23.288Z,18.05
2022-07-27T22:33:52.980Z,18.12
2022-07-27T22:36:22.205Z,18.12
2022-07-27T22:38:51.436Z,18.11
2022-07-27T22:41:22.185Z,18.16
2022-07-27T22:43:51.590Z,18.01
2022-07-27T22:46:25.737Z,18.08
2022-07-27T22:48:55.400Z,18.20
2022-07-27T22:51:24.882Z,18.20
2022-07-27T22:53:57.235Z,18.23
2022-07-27T22:56:28.224Z,18.24
2022-07-27T22:58:57.529Z,18.21
2022-07-27T23:01:47.173Z,18.06
2022-07-27T23:04:17.604Z,18.21
2022-07-27T23:06:48.060Z,18.12
2022-07-27T23:09:17.542Z,18.19
2022-07-27T23:11:48.298Z,18.10
2022-07-27T23:14:19.096Z,17.99
2022-07-27T23:16:48.618Z,18.09
2022-07-27T23:19:17.807Z,18.20
2022-07-27T23:21:47.101Z,17.99
2022-07-27T23:24:28.948Z,18.14
2022-07-27T23:27:00.421Z,18.18
2022-07-27T23:29:29.796Z,18.17
2022-07-27T23:31:59.352Z,18.17
2022-07-27T23:34:29.265Z,18.17
2022-07-27T23:36:58.655Z,18.13
2022-07-27T23:39:28.929Z,18.17
2022-07-27T23:41:59.701Z,18.17
2022-07-27T23:44:28.977Z,18.19
2022-07-27T23:46:58.599Z,18.22
2022-07-27T23:49:27.957Z,18.22
2022-07-27T23:51:57.252Z,18.20
2022-07-27T23:54:26.570Z,18.21
2022-07-27T23:56:55.879Z,18.21
2022-07-27T23:59:26.498Z,18.26
